Terminal Aerodrome Forecast
Issued by NWS Burlington, VT

Home | Current Version | Previous Version | Text Only | Print | Product List | Glossary On
Versions: 1 2 3 4 5 6 7 8 9 10 11 12 13 14 15 16
000
FTUS41 KBTV 190535
TAFBTV
TAF
KBTV 190535Z 1906/2006 14007KT P6SM VCSH BKN020 OVC050
      TEMPO 1906/1910 6SM -RA BR SCT020 OVC035
     FM191000 17010G16KT P6SM -RA OVC018
     FM191500 27018G26KT 4SM SHRA BKN025 OVC035
     FM191600 28016G24KT P6SM VCSH OVC035
     FM192000 28017G26KT P6SM OVC050=

USA.gov is the U.S. government's official web portal to all federal, state and local government web resources and services.